Portada
METAR-TAF:

METAR-TAF

Aeroports :

Bagé, Rio Grande do Sul, Brasil

latitud: 31-21S, longitud: 054-07W, altitud: 180 m

Observació

L'informe es va fer fa 1 hora i 3 minuts, a les 00:00 UTC
Vent 6 kt del Oest
Temperatura 8°C
Humitat 76%
Pressió 1014 hPa
Visibilitat 10 km o més
sense núvols per sota de 1500 mi sense presència de cumulonimbus.

METAR: SBBG 130000Z AUTO 28006KT CAVOK 08/04 Q1014

Hora: 22:03 (01:03 UTC)

Pronòstic

L'informe es va fer fa 4 hores i 3 minuts, a les 21:00 UTC
Pronòstic vàlid del 13 a les 00 UTC al 13 a les 24 UTC
Vent 9 kt del Sud-Oest
Visibilitat 10 km o més
sense núvols per sota de 1500 mi sense presència de cumulonimbus.
Probabilitat 40%
l' 13 a les 07 UTC al 13 a les 11 UTC
Visibilitat: 2000 m
boirina
Probabilitat 30%
l' 13 a les 12 UTC al 13 a les 14 UTC
Visibilitat: 4000 m
boirina

TAF: SBBG 122100Z 1300/1324 22009KT CAVOK TN12/1309Z TX17/1316Z PROB40 1307/1311 2000 BR PROB30 1312/1314 4000 BR RMK PEI

Observacions i pronòstics meteorològics de més de 4000 aeroports (METAR i TAF).

Les estacions disponibles són els punts grocs i vermells al mapa.

Posi el ratolí al punt desitjat per veure el nom de l'estació.

Feu clic per veure les observacions i els pronòstics meteorològics.

Per canviar el mapa: feu clic els botons verds amb una creu de color negre per apropar; al botó verd amb un guió per allunyar la imatge; o en les fletxes verdes per a mapes adjacents.


METAR-TAF: